Quinsam, Canada
Current Conditions -  °F | °C
As of 6:00 AM on Friday 28 Nov 2014 (Local Time) from CYBL Reporting Station
Few Clouds Few Clouds  
Wind Chill: 29°   Ceiling: Unl
Heat Index: 34°   Visibility: 15mi
Dew Point: 32°   Wind: 6mph
Humidity: 93%   Direction: 270°W
Pressure: 29.57"   Gusts: NA
Location:  49.98°N, 125.43°W
Report Text: CYBL 281400Z 27005KT 15SM FEW060 01/M00 A2957 RMK SC1 SLP017
Loading
Personal Weather Stations






























Interactive Weather Map New forecast layout! Learn more

10-Day Weather Forecast

Advertisements
Track Severe Weather on mobile